sensor_id;sensor_type;location;lat;lon;timestamp;temperature;humidity
24158;DHT22;12316;50.904;4.200;2022-11-24T00:01:11;10.50;99.90
24158;DHT22;12316;50.904;4.200;2022-11-24T00:03:37;10.40;99.90
24158;DHT22;12316;50.904;4.200;2022-11-24T00:06:11;10.40;99.90
24158;DHT22;12316;50.904;4.200;2022-11-24T00:08:39;10.40;99.90
24158;DHT22;12316;50.904;4.200;2022-11-24T00:11:07;10.50;99.90
24158;DHT22;12316;50.904;4.200;2022-11-24T00:13:33;10.50;99.90
24158;DHT22;12316;50.904;4.200;2022-11-24T00:18:38;10.60;99.90
24158;DHT22;12316;50.904;4.200;2022-11-24T00:21:04;10.50;99.90
24158;DHT22;12316;50.904;4.200;2022-11-24T00:23:31;10.50;99.90
24158;DHT22;12316;50.904;4.200;2022-11-24T00:26:05;10.60;99.90
24158;DHT22;12316;50.904;4.200;2022-11-24T00:28:32;10.60;99.90
24158;DHT22;12316;50.904;4.200;2022-11-24T00:30:59;10.60;99.90
24158;DHT22;12316;50.904;4.200;2022-11-24T00:33:24;10.60;99.90
24158;DHT22;12316;50.904;4.200;2022-11-24T00:35:57;10.70;99.90
24158;DHT22;12316;50.904;4.200;2022-11-24T00:38:23;10.80;99.90
24158;DHT22;12316;50.904;4.200;2022-11-24T00:40:50;10.80;99.90
24158;DHT22;12316;50.904;4.200;2022-11-24T00:43:16;10.90;99.90
24158;DHT22;12316;50.904;4.200;2022-11-24T00:45:41;10.90;99.90
24158;DHT22;12316;50.904;4.200;2022-11-24T00:48:07;10.90;99.90
24158;DHT22;12316;50.904;4.200;2022-11-24T00:50:33;11.00;99.90
24158;DHT22;12316;50.904;4.200;2022-11-24T00:52:58;10.90;99.90
24158;DHT22;12316;50.904;4.200;2022-11-24T00:55:24;10.90;99.90
24158;DHT22;12316;50.904;4.200;2022-11-24T00:57:49;10.90;99.90
24158;DHT22;12316;50.904;4.200;2022-11-24T01:00:16;10.90;99.90
24158;DHT22;12316;50.904;4.200;2022-11-24T01:02:42;10.90;99.90
24158;DHT22;12316;50.904;4.200;2022-11-24T01:05:07;10.80;99.90
24158;DHT22;12316;50.904;4.200;2022-11-24T01:07:33;10.80;99.90
24158;DHT22;12316;50.904;4.200;2022-11-24T01:09:59;10.90;99.90
24158;DHT22;12316;50.904;4.200;2022-11-24T01:12:24;10.80;99.90
24158;DHT22;12316;50.904;4.200;2022-11-24T01:14:50;10.80;99.90
24158;DHT22;12316;50.904;4.200;2022-11-24T01:17:15;10.90;99.90
24158;DHT22;12316;50.904;4.200;2022-11-24T01:19:41;10.80;99.90
24158;DHT22;12316;50.904;4.200;2022-11-24T01:22:06;10.80;99.90
24158;DHT22;12316;50.904;4.200;2022-11-24T01:24:32;10.80;99.90
24158;DHT22;12316;50.904;4.200;2022-11-24T01:26:58;10.80;99.90
24158;DHT22;12316;50.904;4.200;2022-11-24T01:29:24;10.80;99.90
24158;DHT22;12316;50.904;4.200;2022-11-24T01:31:50;10.80;99.90
24158;DHT22;12316;50.904;4.200;2022-11-24T01:34:16;10.80;99.90
24158;DHT22;12316;50.904;4.200;2022-11-24T01:36:41;10.90;99.90
24158;DHT22;12316;50.904;4.200;2022-11-24T01:39:07;10.90;99.90
24158;DHT22;12316;50.904;4.200;2022-11-24T01:41:34;10.90;99.90
24158;DHT22;12316;50.904;4.200;2022-11-24T01:44:00;11.00;99.90
24158;DHT22;12316;50.904;4.200;2022-11-24T01:49:16;11.00;99.90
24158;DHT22;12316;50.904;4.200;2022-11-24T01:52:13;11.00;99.90
24158;DHT22;12316;50.904;4.200;2022-11-24T01:54:46;11.10;99.90
24158;DHT22;12316;50.904;4.200;2022-11-24T01:57:26;11.10;99.90
24158;DHT22;12316;50.904;4.200;2022-11-24T01:59:56;11.10;99.90
24158;DHT22;12316;50.904;4.200;2022-11-24T02:02:25;11.10;99.90
24158;DHT22;12316;50.904;4.200;2022-11-24T02:04:53;11.20;99.90
24158;DHT22;12316;50.904;4.200;2022-11-24T02:07:19;11.20;99.90
24158;DHT22;12316;50.904;4.200;2022-11-24T02:09:50;11.20;99.90
24158;DHT22;12316;50.904;4.200;2022-11-24T02:12:17;11.20;99.90
24158;DHT22;12316;50.904;4.200;2022-11-24T02:14:43;11.20;99.90
24158;DHT22;12316;50.904;4.200;2022-11-24T02:17:11;11.20;99.90
24158;DHT22;12316;50.904;4.200;2022-11-24T02:22:12;11.30;99.90
24158;DHT22;12316;50.904;4.200;2022-11-24T02:24:55;11.30;99.90
24158;DHT22;12316;50.904;4.200;2022-11-24T02:27:22;11.30;99.90
24158;DHT22;12316;50.904;4.200;2022-11-24T02:29:48;11.30;99.90
24158;DHT22;12316;50.904;4.200;2022-11-24T02:32:14;11.30;99.90
24158;DHT22;12316;50.904;4.200;2022-11-24T02:34:40;11.20;99.90
24158;DHT22;12316;50.904;4.200;2022-11-24T02:37:06;11.20;99.90
24158;DHT22;12316;50.904;4.200;2022-11-24T02:39:32;11.20;99.90
24158;DHT22;12316;50.904;4.200;2022-11-24T02:42:02;11.10;99.90
24158;DHT22;12316;50.904;4.200;2022-11-24T02:44:34;11.10;99.90
24158;DHT22;12316;50.904;4.200;2022-11-24T02:47:05;11.00;99.90
24158;DHT22;12316;50.904;4.200;2022-11-24T02:49:31;11.00;99.90
24158;DHT22;12316;50.904;4.200;2022-11-24T02:51:57;10.90;99.90
24158;DHT22;12316;50.904;4.200;2022-11-24T02:54:22;10.80;99.90
24158;DHT22;12316;50.904;4.200;2022-11-24T02:56:48;10.80;99.90
24158;DHT22;12316;50.904;4.200;2022-11-24T02:59:13;10.80;99.90
24158;DHT22;12316;50.904;4.200;2022-11-24T03:01:39;10.70;99.90
24158;DHT22;12316;50.904;4.200;2022-11-24T03:04:04;10.70;99.90
24158;DHT22;12316;50.904;4.200;2022-11-24T03:06:30;10.60;99.90
24158;DHT22;12316;50.904;4.200;2022-11-24T03:08:55;10.60;99.90
24158;DHT22;12316;50.904;4.200;2022-11-24T03:11:21;10.50;99.90
24158;DHT22;12316;50.904;4.200;2022-11-24T03:13:47;10.50;99.90
24158;DHT22;12316;50.904;4.200;2022-11-24T03:16:13;10.40;99.90
24158;DHT22;12316;50.904;4.200;2022-11-24T03:18:39;10.50;99.90
24158;DHT22;12316;50.904;4.200;2022-11-24T03:21:04;10.40;99.90
24158;DHT22;12316;50.904;4.200;2022-11-24T03:23:30;10.40;99.90
24158;DHT22;12316;50.904;4.200;2022-11-24T03:26:09;10.50;99.90
24158;DHT22;12316;50.904;4.200;2022-11-24T03:28:35;10.50;99.90
24158;DHT22;12316;50.904;4.200;2022-11-24T03:31:00;10.50;99.90
24158;DHT22;12316;50.904;4.200;2022-11-24T03:33:27;10.50;99.90
24158;DHT22;12316;50.904;4.200;2022-11-24T03:35:52;10.60;99.90
24158;DHT22;12316;50.904;4.200;2022-11-24T03:38:18;10.60;99.90
24158;DHT22;12316;50.904;4.200;2022-11-24T03:40:43;10.60;99.90
24158;DHT22;12316;50.904;4.200;2022-11-24T03:43:09;10.60;99.90
24158;DHT22;12316;50.904;4.200;2022-11-24T03:45:34;10.50;99.90
24158;DHT22;12316;50.904;4.200;2022-11-24T03:48:00;10.50;99.90
24158;DHT22;12316;50.904;4.200;2022-11-24T03:50:26;10.50;99.90
24158;DHT22;12316;50.904;4.200;2022-11-24T03:52:51;10.50;99.90
24158;DHT22;12316;50.904;4.200;2022-11-24T03:55:17;10.40;99.90
24158;DHT22;12316;50.904;4.200;2022-11-24T03:57:43;10.30;99.90
24158;DHT22;12316;50.904;4.200;2022-11-24T04:00:09;10.30;99.90
24158;DHT22;12316;50.904;4.200;2022-11-24T04:02:35;10.30;99.90
24158;DHT22;12316;50.904;4.200;2022-11-24T04:05:01;10.20;99.90
24158;DHT22;12316;50.904;4.200;2022-11-24T04:07:27;10.20;99.90
24158;DHT22;12316;50.904;4.200;2022-11-24T04:09:52;10.30;99.90
24158;DHT22;12316;50.904;4.200;2022-11-24T04:12:18;10.20;99.90
24158;DHT22;12316;50.904;4.200;2022-11-24T04:15:02;10.20;99.90
24158;DHT22;12316;50.904;4.200;2022-11-24T04:17:27;10.20;99.90
24158;DHT22;12316;50.904;4.200;2022-11-24T04:19:53;10.20;99.90
24158;DHT22;12316;50.904;4.200;2022-11-24T04:22:19;10.20;99.90
24158;DHT22;12316;50.904;4.200;2022-11-24T04:24:45;10.20;99.90
24158;DHT22;12316;50.904;4.200;2022-11-24T04:27:10;10.20;99.90
24158;DHT22;12316;50.904;4.200;2022-11-24T04:29:37;10.20;99.90
24158;DHT22;12316;50.904;4.200;2022-11-24T04:32:03;10.10;99.90
24158;DHT22;12316;50.904;4.200;2022-11-24T04:34:28;10.10;99.90
24158;DHT22;12316;50.904;4.200;2022-11-24T04:36:54;10.00;99.90
24158;DHT22;12316;50.904;4.200;2022-11-24T04:39:19;10.00;99.90
24158;DHT22;12316;50.904;4.200;2022-11-24T04:41:46;10.00;99.90
24158;DHT22;12316;50.904;4.200;2022-11-24T04:44:12;9.90;99.90
24158;DHT22;12316;50.904;4.200;2022-11-24T04:46:37;9.90;99.90
24158;DHT22;12316;50.904;4.200;2022-11-24T04:49:03;9.80;99.90
24158;DHT22;12316;50.904;4.200;2022-11-24T04:51:29;9.80;99.90
24158;DHT22;12316;50.904;4.200;2022-11-24T04:53:55;9.80;99.90
24158;DHT22;12316;50.904;4.200;2022-11-24T04:56:20;9.70;99.90
24158;DHT22;12316;50.904;4.200;2022-11-24T04:58:49;9.80;99.90
24158;DHT22;12316;50.904;4.200;2022-11-24T05:01:15;9.70;99.90
24158;DHT22;12316;50.904;4.200;2022-11-24T05:03:41;9.70;99.90
24158;DHT22;12316;50.904;4.200;2022-11-24T05:06:07;9.70;99.90
24158;DHT22;12316;50.904;4.200;2022-11-24T05:08:33;9.60;99.90
24158;DHT22;12316;50.904;4.200;2022-11-24T05:11:06;9.70;99.90
24158;DHT22;12316;50.904;4.200;2022-11-24T05:13:31;9.60;99.90
24158;DHT22;12316;50.904;4.200;2022-11-24T05:15:57;9.60;99.90
24158;DHT22;12316;50.904;4.200;2022-11-24T05:18:24;9.50;99.90
24158;DHT22;12316;50.904;4.200;2022-11-24T05:20:51;9.60;99.90
24158;DHT22;12316;50.904;4.200;2022-11-24T05:23:16;9.50;99.90
24158;DHT22;12316;50.904;4.200;2022-11-24T05:25:42;9.50;99.90
24158;DHT22;12316;50.904;4.200;2022-11-24T05:28:08;9.50;99.90
24158;DHT22;12316;50.904;4.200;2022-11-24T05:30:37;9.60;99.90
24158;DHT22;12316;50.904;4.200;2022-11-24T05:33:05;9.60;99.90
24158;DHT22;12316;50.904;4.200;2022-11-24T05:35:32;9.60;99.90
24158;DHT22;12316;50.904;4.200;2022-11-24T05:37:58;9.60;99.90
24158;DHT22;12316;50.904;4.200;2022-11-24T05:40:24;9.70;99.90
24158;DHT22;12316;50.904;4.200;2022-11-24T05:42:49;9.70;99.90
24158;DHT22;12316;50.904;4.200;2022-11-24T05:45:17;9.70;99.90
24158;DHT22;12316;50.904;4.200;2022-11-24T05:47:44;9.60;99.90
24158;DHT22;12316;50.904;4.200;2022-11-24T05:50:12;9.60;99.90
24158;DHT22;12316;50.904;4.200;2022-11-24T05:52:38;9.50;99.90
24158;DHT22;12316;50.904;4.200;2022-11-24T05:55:05;9.50;99.90
24158;DHT22;12316;50.904;4.200;2022-11-24T05:57:31;9.50;99.90
24158;DHT22;12316;50.904;4.200;2022-11-24T05:59:56;9.50;99.90
24158;DHT22;12316;50.904;4.200;2022-11-24T06:02:22;9.40;99.90
24158;DHT22;12316;50.904;4.200;2022-11-24T06:04:47;9.40;99.90
24158;DHT22;12316;50.904;4.200;2022-11-24T06:07:13;9.40;99.90
24158;DHT22;12316;50.904;4.200;2022-11-24T06:09:40;9.30;99.90
24158;DHT22;12316;50.904;4.200;2022-11-24T06:12:06;9.30;99.90
24158;DHT22;12316;50.904;4.200;2022-11-24T06:14:32;9.30;99.90
24158;DHT22;12316;50.904;4.200;2022-11-24T06:16:58;9.30;99.90
24158;DHT22;12316;50.904;4.200;2022-11-24T06:19:24;9.30;99.90
24158;DHT22;12316;50.904;4.200;2022-11-24T06:21:49;9.30;99.90
24158;DHT22;12316;50.904;4.200;2022-11-24T06:24:15;9.20;99.90
24158;DHT22;12316;50.904;4.200;2022-11-24T06:26:41;9.20;99.90
24158;DHT22;12316;50.904;4.200;2022-11-24T06:29:07;9.10;99.90
24158;DHT22;12316;50.904;4.200;2022-11-24T06:31:32;9.20;99.90
24158;DHT22;12316;50.904;4.200;2022-11-24T06:33:59;9.20;99.90
24158;DHT22;12316;50.904;4.200;2022-11-24T06:36:25;9.20;99.90
24158;DHT22;12316;50.904;4.200;2022-11-24T06:38:50;9.10;99.90
24158;DHT22;12316;50.904;4.200;2022-11-24T06:41:16;9.20;99.90
24158;DHT22;12316;50.904;4.200;2022-11-24T06:43:43;9.20;99.90
24158;DHT22;12316;50.904;4.200;2022-11-24T06:46:09;9.20;99.90
24158;DHT22;12316;50.904;4.200;2022-11-24T06:48:36;9.10;99.90
24158;DHT22;12316;50.904;4.200;2022-11-24T06:51:04;9.10;99.90
24158;DHT22;12316;50.904;4.200;2022-11-24T06:53:31;9.00;99.90
24158;DHT22;12316;50.904;4.200;2022-11-24T06:56:00;9.00;99.90
24158;DHT22;12316;50.904;4.200;2022-11-24T06:58:26;9.00;99.90
24158;DHT22;12316;50.904;4.200;2022-11-24T07:00:53;8.90;99.90
24158;DHT22;12316;50.904;4.200;2022-11-24T07:03:20;8.90;99.90
24158;DHT22;12316;50.904;4.200;2022-11-24T07:05:45;8.90;99.90
24158;DHT22;12316;50.904;4.200;2022-11-24T07:08:11;8.90;99.90
24158;DHT22;12316;50.904;4.200;2022-11-24T07:10:37;8.90;99.90
24158;DHT22;12316;50.904;4.200;2022-11-24T07:13:05;8.90;99.90
24158;DHT22;12316;50.904;4.200;2022-11-24T07:15:31;8.90;99.90
24158;DHT22;12316;50.904;4.200;2022-11-24T07:17:56;8.90;99.90
24158;DHT22;12316;50.904;4.200;2022-11-24T07:20:22;8.90;99.90
24158;DHT22;12316;50.904;4.200;2022-11-24T07:22:47;8.90;99.90
24158;DHT22;12316;50.904;4.200;2022-11-24T07:25:13;8.90;99.90
24158;DHT22;12316;50.904;4.200;2022-11-24T07:27:39;8.90;99.90
24158;DHT22;12316;50.904;4.200;2022-11-24T07:30:06;8.90;99.90
24158;DHT22;12316;50.904;4.200;2022-11-24T07:32:32;8.90;99.90
24158;DHT22;12316;50.904;4.200;2022-11-24T07:34:58;8.90;99.90
24158;DHT22;12316;50.904;4.200;2022-11-24T07:37:24;8.90;99.90
24158;DHT22;12316;50.904;4.200;2022-11-24T07:39:49;8.90;99.90
24158;DHT22;12316;50.904;4.200;2022-11-24T07:42:15;8.90;99.90
24158;DHT22;12316;50.904;4.200;2022-11-24T07:44:40;9.00;99.90
24158;DHT22;12316;50.904;4.200;2022-11-24T07:47:06;9.00;99.90
24158;DHT22;12316;50.904;4.200;2022-11-24T07:49:33;9.00;99.90
24158;DHT22;12316;50.904;4.200;2022-11-24T07:51:58;9.00;99.90
24158;DHT22;12316;50.904;4.200;2022-11-24T07:54:26;9.00;99.90
24158;DHT22;12316;50.904;4.200;2022-11-24T07:56:51;9.00;99.90
24158;DHT22;12316;50.904;4.200;2022-11-24T07:59:17;9.00;99.90
24158;DHT22;12316;50.904;4.200;2022-11-24T08:01:42;9.00;99.90
24158;DHT22;12316;50.904;4.200;2022-11-24T08:04:08;9.10;99.90
24158;DHT22;12316;50.904;4.200;2022-11-24T08:06:34;9.20;99.90
24158;DHT22;12316;50.904;4.200;2022-11-24T08:08:59;9.20;99.90
24158;DHT22;12316;50.904;4.200;2022-11-24T08:11:25;9.20;99.90
24158;DHT22;12316;50.904;4.200;2022-11-24T08:13:51;9.20;99.90
24158;DHT22;12316;50.904;4.200;2022-11-24T08:16:18;9.30;99.90
24158;DHT22;12316;50.904;4.200;2022-11-24T08:18:51;9.30;99.90
24158;DHT22;12316;50.904;4.200;2022-11-24T08:21:17;9.30;99.90
24158;DHT22;12316;50.904;4.200;2022-11-24T08:23:43;9.40;99.90
24158;DHT22;12316;50.904;4.200;2022-11-24T08:26:13;9.50;99.90
24158;DHT22;12316;50.904;4.200;2022-11-24T08:28:42;9.60;99.90
24158;DHT22;12316;50.904;4.200;2022-11-24T08:31:11;9.70;99.90
24158;DHT22;12316;50.904;4.200;2022-11-24T08:33:37;9.70;99.90
24158;DHT22;12316;50.904;4.200;2022-11-24T08:36:08;9.70;99.90
24158;DHT22;12316;50.904;4.200;2022-11-24T08:38:34;9.70;99.90
24158;DHT22;12316;50.904;4.200;2022-11-24T08:41:02;9.80;99.90
24158;DHT22;12316;50.904;4.200;2022-11-24T08:43:28;9.80;99.90
24158;DHT22;12316;50.904;4.200;2022-11-24T08:45:53;9.90;99.90
24158;DHT22;12316;50.904;4.200;2022-11-24T08:48:20;9.90;99.90
24158;DHT22;12316;50.904;4.200;2022-11-24T08:50:46;10.00;99.90
24158;DHT22;12316;50.904;4.200;2022-11-24T08:53:11;10.00;99.90
24158;DHT22;12316;50.904;4.200;2022-11-24T08:55:37;10.20;99.90
24158;DHT22;12316;50.904;4.200;2022-11-24T08:58:02;10.30;99.90
24158;DHT22;12316;50.904;4.200;2022-11-24T09:00:28;10.40;99.90
24158;DHT22;12316;50.904;4.200;2022-11-24T09:02:57;10.50;99.90
24158;DHT22;12316;50.904;4.200;2022-11-24T09:05:24;10.50;99.90
24158;DHT22;12316;50.904;4.200;2022-11-24T09:07:49;10.40;99.90
24158;DHT22;12316;50.904;4.200;2022-11-24T09:10:15;10.40;99.90
24158;DHT22;12316;50.904;4.200;2022-11-24T09:12:46;10.40;99.90
24158;DHT22;12316;50.904;4.200;2022-11-24T09:15:12;10.30;99.90
24158;DHT22;12316;50.904;4.200;2022-11-24T09:17:39;10.30;99.90
24158;DHT22;12316;50.904;4.200;2022-11-24T09:20:05;10.30;99.90
24158;DHT22;12316;50.904;4.200;2022-11-24T09:22:31;10.40;99.90
24158;DHT22;12316;50.904;4.200;2022-11-24T09:24:56;10.50;99.90
24158;DHT22;12316;50.904;4.200;2022-11-24T09:27:22;10.50;99.90
24158;DHT22;12316;50.904;4.200;2022-11-24T09:29:47;10.40;99.90
24158;DHT22;12316;50.904;4.200;2022-11-24T09:32:13;10.50;99.90
24158;DHT22;12316;50.904;4.200;2022-11-24T09:34:39;10.60;99.90
24158;DHT22;12316;50.904;4.200;2022-11-24T09:37:05;10.60;99.90
24158;DHT22;12316;50.904;4.200;2022-11-24T09:39:30;10.60;99.90
24158;DHT22;12316;50.904;4.200;2022-11-24T09:45:04;10.70;99.90
24158;DHT22;12316;50.904;4.200;2022-11-24T09:50:26;10.70;99.90
24158;DHT22;12316;50.904;4.200;2022-11-24T10:03:56;11.00;99.90
24158;DHT22;12316;50.904;4.200;2022-11-24T10:14:52;11.10;99.90
24158;DHT22;12316;50.904;4.200;2022-11-24T10:20:29;11.30;99.90
24158;DHT22;12316;50.904;4.200;2022-11-24T10:25:59;11.30;99.90
24158;DHT22;12316;50.904;4.200;2022-11-24T10:28:31;11.40;99.90
24158;DHT22;12316;50.904;4.200;2022-11-24T10:33:41;11.50;99.90
24158;DHT22;12316;50.904;4.200;2022-11-24T10:36:10;11.50;99.90
24158;DHT22;12316;50.904;4.200;2022-11-24T10:39:08;11.60;99.90
24158;DHT22;12316;50.904;4.200;2022-11-24T10:41:51;11.70;99.90
24158;DHT22;12316;50.904;4.200;2022-11-24T10:44:18;11.70;99.90
24158;DHT22;12316;50.904;4.200;2022-11-24T10:46:43;11.80;99.90
24158;DHT22;12316;50.904;4.200;2022-11-24T10:49:18;11.80;99.90
24158;DHT22;12316;50.904;4.200;2022-11-24T10:52:08;11.90;99.90
24158;DHT22;12316;50.904;4.200;2022-11-24T10:54:52;11.90;99.90
24158;DHT22;12316;50.904;4.200;2022-11-24T10:57:32;11.90;99.90
24158;DHT22;12316;50.904;4.200;2022-11-24T10:59:59;12.00;99.90
24158;DHT22;12316;50.904;4.200;2022-11-24T11:02:36;12.00;99.90
24158;DHT22;12316;50.904;4.200;2022-11-24T11:05:34;12.00;99.90
24158;DHT22;12316;50.904;4.200;2022-11-24T11:10:41;12.10;99.90
24158;DHT22;12316;50.904;4.200;2022-11-24T11:13:51;12.10;99.90
24158;DHT22;12316;50.904;4.200;2022-11-24T11:16:44;12.10;99.90
24158;DHT22;12316;50.904;4.200;2022-11-24T11:19:35;12.10;99.90
24158;DHT22;12316;50.904;4.200;2022-11-24T11:22:13;12.20;99.90
24158;DHT22;12316;50.904;4.200;2022-11-24T11:24:42;12.20;99.90
24158;DHT22;12316;50.904;4.200;2022-11-24T11:27:34;12.30;99.90
24158;DHT22;12316;50.904;4.200;2022-11-24T11:32:57;12.30;99.90
24158;DHT22;12316;50.904;4.200;2022-11-24T11:35:24;12.50;99.90
24158;DHT22;12316;50.904;4.200;2022-11-24T11:37:56;12.50;99.90
24158;DHT22;12316;50.904;4.200;2022-11-24T11:40:28;12.50;99.90
24158;DHT22;12316;50.904;4.200;2022-11-24T11:43:08;12.60;99.90
24158;DHT22;12316;50.904;4.200;2022-11-24T11:45:42;12.60;99.90
24158;DHT22;12316;50.904;4.200;2022-11-24T11:48:28;12.70;99.90
24158;DHT22;12316;50.904;4.200;2022-11-24T11:56:29;12.60;99.90
24158;DHT22;12316;50.904;4.200;2022-11-24T12:13:40;12.90;99.90
24158;DHT22;12316;50.904;4.200;2022-11-24T12:22:06;12.90;99.90
24158;DHT22;12316;50.904;4.200;2022-11-24T12:27:47;13.00;99.90
24158;DHT22;12316;50.904;4.200;2022-11-24T12:30:17;13.10;99.90
24158;DHT22;12316;50.904;4.200;2022-11-24T12:35:48;13.10;99.90
24158;DHT22;12316;50.904;4.200;2022-11-24T12:43:53;13.10;99.90
24158;DHT22;12316;50.904;4.200;2022-11-24T12:49:14;13.10;99.90
24158;DHT22;12316;50.904;4.200;2022-11-24T12:51:46;13.10;99.90
24158;DHT22;12316;50.904;4.200;2022-11-24T12:54:17;13.10;99.90
24158;DHT22;12316;50.904;4.200;2022-11-24T12:57:03;13.20;99.90
24158;DHT22;12316;50.904;4.200;2022-11-24T12:59:40;13.10;99.90
24158;DHT22;12316;50.904;4.200;2022-11-24T13:05:49;13.20;99.90
24158;DHT22;12316;50.904;4.200;2022-11-24T13:08:06;13.20;99.90
24158;DHT22;12316;50.904;4.200;2022-11-24T13:10:37;13.30;99.90
24158;DHT22;12316;50.904;4.200;2022-11-24T13:13:09;13.20;99.90
24158;DHT22;12316;50.904;4.200;2022-11-24T13:18:56;13.20;99.90
24158;DHT22;12316;50.904;4.200;2022-11-24T13:26:43;13.20;99.90
24158;DHT22;12316;50.904;4.200;2022-11-24T13:29:28;13.30;99.90
24158;DHT22;12316;50.904;4.200;2022-11-24T13:37:17;13.20;99.90
24158;DHT22;12316;50.904;4.200;2022-11-24T13:42:13;13.10;99.90
24158;DHT22;12316;50.904;4.200;2022-11-24T13:47:32;13.00;99.90
24158;DHT22;12316;50.904;4.200;2022-11-24T13:49:59;13.00;99.90
24158;DHT22;12316;50.904;4.200;2022-11-24T13:52:39;12.90;99.90
24158;DHT22;12316;50.904;4.200;2022-11-24T13:57:42;12.80;99.90
24158;DHT22;12316;50.904;4.200;2022-11-24T14:00:29;12.80;99.90
24158;DHT22;12316;50.904;4.200;2022-11-24T14:03:01;12.80;99.90
24158;DHT22;12316;50.904;4.200;2022-11-24T14:05:39;12.80;99.90
24158;DHT22;12316;50.904;4.200;2022-11-24T14:08:17;12.80;99.90
24158;DHT22;12316;50.904;4.200;2022-11-24T14:10:44;12.80;99.90
24158;DHT22;12316;50.904;4.200;2022-11-24T14:16:14;12.70;99.90
24158;DHT22;12316;50.904;4.200;2022-11-24T14:18:42;12.70;99.90
24158;DHT22;12316;50.904;4.200;2022-11-24T14:21:29;12.70;99.90
24158;DHT22;12316;50.904;4.200;2022-11-24T14:24:23;12.70;99.90
24158;DHT22;12316;50.904;4.200;2022-11-24T14:26:51;12.70;99.90
24158;DHT22;12316;50.904;4.200;2022-11-24T14:29:19;12.70;99.90
24158;DHT22;12316;50.904;4.200;2022-11-24T14:31:59;12.60;99.90
24158;DHT22;12316;50.904;4.200;2022-11-24T14:34:28;12.60;99.90
24158;DHT22;12316;50.904;4.200;2022-11-24T14:36:55;12.60;99.90
24158;DHT22;12316;50.904;4.200;2022-11-24T14:39:23;12.50;99.90
24158;DHT22;12316;50.904;4.200;2022-11-24T14:42:17;12.50;99.90
24158;DHT22;12316;50.904;4.200;2022-11-24T14:44:58;12.50;99.90
24158;DHT22;12316;50.904;4.200;2022-11-24T14:47:29;12.50;99.90
24158;DHT22;12316;50.904;4.200;2022-11-24T14:49:56;12.40;99.90
24158;DHT22;12316;50.904;4.200;2022-11-24T14:52:23;12.30;99.90
24158;DHT22;12316;50.904;4.200;2022-11-24T14:54:54;12.30;99.90
24158;DHT22;12316;50.904;4.200;2022-11-24T14:57:35;12.30;99.90
24158;DHT22;12316;50.904;4.200;2022-11-24T15:02:40;12.30;99.90
24158;DHT22;12316;50.904;4.200;2022-11-24T15:05:09;12.20;99.90
24158;DHT22;12316;50.904;4.200;2022-11-24T15:07:36;12.20;99.90
24158;DHT22;12316;50.904;4.200;2022-11-24T15:10:15;12.20;99.90
24158;DHT22;12316;50.904;4.200;2022-11-24T15:12:57;12.20;99.90
24158;DHT22;12316;50.904;4.200;2022-11-24T15:15:35;12.10;99.90
24158;DHT22;12316;50.904;4.200;2022-11-24T15:18:03;12.10;99.90
24158;DHT22;12316;50.904;4.200;2022-11-24T15:20:31;12.10;99.90
24158;DHT22;12316;50.904;4.200;2022-11-24T15:23:24;12.00;99.90
24158;DHT22;12316;50.904;4.200;2022-11-24T15:25:52;12.00;99.90
24158;DHT22;12316;50.904;4.200;2022-11-24T15:28:17;12.00;99.90
24158;DHT22;12316;50.904;4.200;2022-11-24T15:30:47;12.00;99.90
24158;DHT22;12316;50.904;4.200;2022-11-24T15:33:15;11.90;99.90
24158;DHT22;12316;50.904;4.200;2022-11-24T15:35:42;11.90;99.90
24158;DHT22;12316;50.904;4.200;2022-11-24T15:38:08;11.90;99.90
24158;DHT22;12316;50.904;4.200;2022-11-24T15:40:35;12.00;99.90
24158;DHT22;12316;50.904;4.200;2022-11-24T15:43:01;12.00;99.90
24158;DHT22;12316;50.904;4.200;2022-11-24T15:45:27;12.00;99.90
24158;DHT22;12316;50.904;4.200;2022-11-24T15:47:52;11.90;99.90
24158;DHT22;12316;50.904;4.200;2022-11-24T15:50:19;11.90;99.90
24158;DHT22;12316;50.904;4.200;2022-11-24T15:52:45;11.80;99.90
24158;DHT22;12316;50.904;4.200;2022-11-24T15:55:17;11.70;99.90
24158;DHT22;12316;50.904;4.200;2022-11-24T15:57:43;11.70;99.90
24158;DHT22;12316;50.904;4.200;2022-11-24T16:00:13;11.60;99.90
24158;DHT22;12316;50.904;4.200;2022-11-24T16:02:39;11.50;99.90
24158;DHT22;12316;50.904;4.200;2022-11-24T16:05:05;11.50;99.90
24158;DHT22;12316;50.904;4.200;2022-11-24T16:07:30;11.50;99.90
24158;DHT22;12316;50.904;4.200;2022-11-24T16:09:56;11.40;99.90
24158;DHT22;12316;50.904;4.200;2022-11-24T16:12:22;11.40;99.90
24158;DHT22;12316;50.904;4.200;2022-11-24T16:14:49;11.30;99.90
24158;DHT22;12316;50.904;4.200;2022-11-24T16:17:14;11.30;99.90
24158;DHT22;12316;50.904;4.200;2022-11-24T16:19:40;11.20;99.90
24158;DHT22;12316;50.904;4.200;2022-11-24T16:22:06;11.20;99.90
24158;DHT22;12316;50.904;4.200;2022-11-24T16:24:32;11.20;99.90
24158;DHT22;12316;50.904;4.200;2022-11-24T16:26:58;11.10;99.90
24158;DHT22;12316;50.904;4.200;2022-11-24T16:29:23;11.10;99.90
24158;DHT22;12316;50.904;4.200;2022-11-24T16:31:52;11.10;99.90
24158;DHT22;12316;50.904;4.200;2022-11-24T16:34:18;11.00;99.90
24158;DHT22;12316;50.904;4.200;2022-11-24T16:36:45;11.00;99.90
24158;DHT22;12316;50.904;4.200;2022-11-24T16:39:11;11.10;99.90
24158;DHT22;12316;50.904;4.200;2022-11-24T16:41:36;11.10;99.90
24158;DHT22;12316;50.904;4.200;2022-11-24T16:44:02;11.00;99.90
24158;DHT22;12316;50.904;4.200;2022-11-24T16:46:27;11.00;99.90
24158;DHT22;12316;50.904;4.200;2022-11-24T16:48:54;10.90;99.90
24158;DHT22;12316;50.904;4.200;2022-11-24T16:51:22;10.90;99.90
24158;DHT22;12316;50.904;4.200;2022-11-24T16:54:00;10.90;99.90
24158;DHT22;12316;50.904;4.200;2022-11-24T16:56:26;10.90;99.90
24158;DHT22;12316;50.904;4.200;2022-11-24T16:58:52;10.90;99.90
24158;DHT22;12316;50.904;4.200;2022-11-24T17:01:19;10.80;99.90
24158;DHT22;12316;50.904;4.200;2022-11-24T17:03:45;10.80;99.90
24158;DHT22;12316;50.904;4.200;2022-11-24T17:06:13;10.70;99.90
24158;DHT22;12316;50.904;4.200;2022-11-24T17:08:41;10.70;99.90
24158;DHT22;12316;50.904;4.200;2022-11-24T17:11:15;10.70;99.90
24158;DHT22;12316;50.904;4.200;2022-11-24T17:13:42;10.60;99.90
24158;DHT22;12316;50.904;4.200;2022-11-24T17:16:13;10.50;99.90
24158;DHT22;12316;50.904;4.200;2022-11-24T17:18:39;10.50;99.90
24158;DHT22;12316;50.904;4.200;2022-11-24T17:21:08;10.40;99.90
24158;DHT22;12316;50.904;4.200;2022-11-24T17:23:35;10.50;99.90
24158;DHT22;12316;50.904;4.200;2022-11-24T17:26:06;10.50;99.90
24158;DHT22;12316;50.904;4.200;2022-11-24T17:28:33;10.40;99.90
24158;DHT22;12316;50.904;4.200;2022-11-24T17:31:14;10.50;99.90
24158;DHT22;12316;50.904;4.200;2022-11-24T17:33:41;10.40;99.90
24158;DHT22;12316;50.904;4.200;2022-11-24T17:36:06;10.40;99.90
24158;DHT22;12316;50.904;4.200;2022-11-24T17:38:32;10.30;99.90
24158;DHT22;12316;50.904;4.200;2022-11-24T17:40:59;10.30;99.90
24158;DHT22;12316;50.904;4.200;2022-11-24T17:43:25;10.40;99.90